createdAt,value
2023-02-14T00:01:34.227Z,11.87
2023-02-14T00:04:02.856Z,13.37
2023-02-14T00:06:35.293Z,13.23
2023-02-14T00:09:03.556Z,11.67
2023-02-14T00:11:32.170Z,10.70
2023-02-14T00:14:17.998Z,11.87
2023-02-14T00:16:48.244Z,14.47
2023-02-14T00:19:17.265Z,12.23
2023-02-14T00:21:46.123Z,9.90
2023-02-14T00:24:15.621Z,12.13
2023-02-14T00:26:44.010Z,12.40
2023-02-14T00:29:13.285Z,11.80
2023-02-14T00:31:41.780Z,12.33
2023-02-14T00:34:11.681Z,11.23
2023-02-14T00:36:40.671Z,9.63
2023-02-14T00:39:09.900Z,12.43
2023-02-14T00:41:38.848Z,12.13
2023-02-14T00:44:07.361Z,12.77
2023-02-14T00:46:35.602Z,11.70
2023-02-14T00:49:03.953Z,12.20
2023-02-14T00:51:34.413Z,13.80
2023-02-14T00:54:03.815Z,13.20
2023-02-14T00:56:33.102Z,12.00
2023-02-14T00:59:02.097Z,13.10
2023-02-14T01:01:30.445Z,10.57
2023-02-14T01:04:00.039Z,10.93
2023-02-14T01:06:28.345Z,11.60
2023-02-14T01:08:59.588Z,11.57
2023-02-14T01:11:30.153Z,12.40
2023-02-14T01:13:59.453Z,13.83
2023-02-14T01:16:28.825Z,12.93
2023-02-14T01:18:57.431Z,10.10
2023-02-14T01:21:26.684Z,10.10
2023-02-14T01:23:59.701Z,11.83
2023-02-14T01:26:28.522Z,13.80
2023-02-14T01:28:56.790Z,11.83
2023-02-14T01:31:26.368Z,9.77
2023-02-14T01:33:54.929Z,12.83
2023-02-14T01:36:23.995Z,10.37
2023-02-14T01:38:53.472Z,12.23
2023-02-14T01:41:23.381Z,11.93
2023-02-14T01:43:59.670Z,10.20
2023-02-14T01:46:28.990Z,11.73
2023-02-14T01:48:58.788Z,11.60
2023-02-14T01:51:27.506Z,12.27
2023-02-14T01:53:55.895Z,11.97
2023-02-14T01:56:31.569Z,11.70
2023-02-14T01:59:00.585Z,12.87
2023-02-14T02:01:29.221Z,12.20
2023-02-14T02:04:00.291Z,10.83
2023-02-14T02:06:33.712Z,11.90
2023-02-14T02:09:10.455Z,11.53
2023-02-14T02:11:40.283Z,10.30
2023-02-14T02:14:12.675Z,11.30
2023-02-14T02:17:18.162Z,11.23
2023-02-14T02:20:24.772Z,12.93
2023-02-14T02:23:25.528Z,11.23
2023-02-14T02:26:09.815Z,10.97
2023-02-14T02:29:15.479Z,12.27
2023-02-14T02:31:56.643Z,9.53
2023-02-14T02:35:00.221Z,12.60
2023-02-14T02:37:35.414Z,11.13
2023-02-14T02:40:12.633Z,11.30
2023-02-14T02:42:49.108Z,10.67
2023-02-14T02:45:23.758Z,11.33
2023-02-14T02:47:56.136Z,12.03
2023-02-14T02:50:44.060Z,13.43
2023-02-14T02:53:16.622Z,9.83
2023-02-14T02:56:03.170Z,11.27
2023-02-14T02:58:36.138Z,10.83
2023-02-14T03:01:07.379Z,13.37
2023-02-14T03:03:53.005Z,11.43
2023-02-14T03:06:24.191Z,11.37
2023-02-14T03:08:52.871Z,10.67
2023-02-14T03:11:21.150Z,12.03
2023-02-14T03:13:56.035Z,10.50
2023-02-14T03:16:32.178Z,10.03
2023-02-14T03:19:58.885Z,11.23
2023-02-14T03:22:34.443Z,10.83
2023-02-14T03:25:06.963Z,12.10
2023-02-14T03:27:37.769Z,10.67
2023-02-14T03:30:10.030Z,12.10
2023-02-14T03:32:40.962Z,13.43
2023-02-14T03:38:23.679Z,10.87
2023-02-14T03:40:54.658Z,11.27
2023-02-14T03:43:25.217Z,10.17
2023-02-14T03:45:54.508Z,11.47
2023-02-14T03:48:24.130Z,9.77
2023-02-14T03:50:52.273Z,11.20
2023-02-14T03:53:23.938Z,10.67
2023-02-14T03:55:54.565Z,9.00
2023-02-14T03:58:25.544Z,9.77
2023-02-14T04:00:55.523Z,9.00
2023-02-14T04:03:23.703Z,11.67
2023-02-14T04:05:52.566Z,11.97
2023-02-14T04:08:26.134Z,12.17
2023-02-14T04:10:54.321Z,10.27
2023-02-14T04:13:22.515Z,10.07
2023-02-14T04:15:51.073Z,11.20
2023-02-14T04:18:36.769Z,9.67
2023-02-14T04:21:05.129Z,11.33
2023-02-14T04:23:34.634Z,10.63
2023-02-14T04:26:03.776Z,11.23
2023-02-14T04:28:32.176Z,11.97
2023-02-14T04:31:02.658Z,11.23
2023-02-14T04:33:31.071Z,11.00
2023-02-14T04:35:59.167Z,13.27
2023-02-14T04:38:27.485Z,10.50
2023-02-14T04:40:57.188Z,8.43
2023-02-14T04:43:25.734Z,11.37
2023-02-14T04:45:53.884Z,12.60
2023-02-14T04:48:22.017Z,9.83
2023-02-14T04:50:53.008Z,9.53
2023-02-14T04:53:21.227Z,10.23
2023-02-14T04:55:50.169Z,9.90
2023-02-14T04:58:19.925Z,8.50
2023-02-14T05:00:48.172Z,10.60
2023-02-14T05:03:16.404Z,9.93
2023-02-14T05:05:44.483Z,8.17
2023-02-14T05:08:12.627Z,9.80
2023-02-14T05:10:40.985Z,10.63
2023-02-14T05:13:09.113Z,10.27
2023-02-14T05:15:38.811Z,9.87
2023-02-14T05:18:07.024Z,11.00
2023-02-14T05:20:35.174Z,12.80
2023-02-14T05:23:03.639Z,9.37
2023-02-14T05:25:32.234Z,10.47
2023-02-14T05:28:00.334Z,11.17
2023-02-14T05:30:29.104Z,9.93
2023-02-14T05:32:58.733Z,9.77
2023-02-14T05:35:26.963Z,9.40
2023-02-14T05:37:55.112Z,10.80
2023-02-14T05:42:50.476Z,10.20
2023-02-14T05:45:18.669Z,11.23
2023-02-14T05:47:46.862Z,10.97
2023-02-14T05:50:16.341Z,15.27
2023-02-14T05:52:44.783Z,12.80
2023-02-14T05:55:12.927Z,10.70
2023-02-14T05:57:41.205Z,12.30
2023-02-14T06:00:10.435Z,10.43
2023-02-14T06:02:41.129Z,12.90
2023-02-14T06:05:09.886Z,13.43
2023-02-14T06:07:39.412Z,11.87
2023-02-14T06:10:09.995Z,14.47
2023-02-14T06:12:38.183Z,11.50
2023-02-14T06:15:07.097Z,11.83
2023-02-14T06:17:35.185Z,11.67
2023-02-14T06:20:03.340Z,10.63
2023-02-14T06:22:31.454Z,10.77
2023-02-14T06:25:00.986Z,11.17
2023-02-14T06:27:30.228Z,10.97
2023-02-14T06:29:58.604Z,10.47
2023-02-14T06:32:27.080Z,12.33
2023-02-14T06:34:55.218Z,10.53
2023-02-14T06:37:23.298Z,12.83
2023-02-14T06:39:51.418Z,12.53
2023-02-14T06:42:20.926Z,12.87
2023-02-14T06:44:48.986Z,12.30
2023-02-14T06:47:17.361Z,13.10
2023-02-14T06:49:45.570Z,10.23
2023-02-14T06:52:13.678Z,13.97
2023-02-14T06:54:42.008Z,12.03
2023-02-14T06:57:10.153Z,14.07
2023-02-14T06:59:39.578Z,10.97
2023-02-14T07:02:08.043Z,10.80
2023-02-14T07:04:36.238Z,12.67
2023-02-14T07:07:05.026Z,15.03
2023-02-14T07:09:33.144Z,14.57
2023-02-14T07:12:01.297Z,15.77
2023-02-14T07:14:29.765Z,12.17
2023-02-14T07:16:59.598Z,16.10
2023-02-14T07:19:27.868Z,15.43
2023-02-14T07:21:56.046Z,15.37
2023-02-14T07:24:24.372Z,16.90
2023-02-14T07:26:52.484Z,15.83
2023-02-14T07:29:20.904Z,18.43
2023-02-14T07:31:49.152Z,22.73
2023-02-14T07:34:18.683Z,16.93
2023-02-14T07:36:46.949Z,15.77
2023-02-14T07:39:15.159Z,16.13
2023-02-14T07:41:43.551Z,16.40
2023-02-14T07:44:12.003Z,16.93
2023-02-14T07:46:40.228Z,14.73
2023-02-14T07:49:08.332Z,18.30
2023-02-14T07:51:37.917Z,19.53
2023-02-14T07:54:06.023Z,17.13
2023-02-14T07:56:34.411Z,18.13
2023-02-14T07:59:02.570Z,16.50
2023-02-14T08:01:30.691Z,17.70
2023-02-14T08:03:58.827Z,19.17
2023-02-14T08:06:28.023Z,17.77
2023-02-14T08:08:58.745Z,18.60
2023-02-14T08:11:44.382Z,21.43
2023-02-14T08:14:12.497Z,22.00
2023-02-14T08:16:40.593Z,22.40
2023-02-14T08:19:08.725Z,21.80
2023-02-14T08:21:36.863Z,25.93
2023-02-14T08:24:06.996Z,28.77
2023-02-14T08:26:35.107Z,25.90
2023-02-14T08:29:09.396Z,27.80
2023-02-14T08:31:37.988Z,27.70
2023-02-14T08:34:06.119Z,29.27
2023-02-14T08:36:34.979Z,27.27
2023-02-14T08:39:03.935Z,25.27
2023-02-14T08:41:33.475Z,33.47
2023-02-14T08:44:01.758Z,29.43
2023-02-14T08:46:30.140Z,36.10
2023-02-14T08:48:58.341Z,34.60
2023-02-14T08:51:27.071Z,37.93
2023-02-14T08:53:56.060Z,35.40
2023-02-14T08:56:24.955Z,38.47
2023-02-14T08:58:55.381Z,36.10
2023-02-14T09:01:23.490Z,44.37
2023-02-14T09:03:52.227Z,40.10
2023-02-14T09:06:20.331Z,41.60
2023-02-14T09:08:48.551Z,39.83
2023-02-14T09:11:18.683Z,48.13
2023-02-14T09:13:47.483Z,42.47
2023-02-14T09:16:17.766Z,53.57
2023-02-14T09:18:46.470Z,44.87
2023-02-14T09:21:16.397Z,49.50
2023-02-14T09:23:44.525Z,51.13
2023-02-14T09:26:13.362Z,48.27
2023-02-14T09:28:41.537Z,46.87
2023-02-14T09:31:10.469Z,47.57
2023-02-14T09:33:40.067Z,41.60
2023-02-14T09:36:20.935Z,48.23
2023-02-14T09:38:49.097Z,37.73
2023-02-14T09:41:32.142Z,37.37
2023-02-14T09:44:00.957Z,28.43
2023-02-14T09:46:29.459Z,24.07
2023-02-14T09:48:59.089Z,22.47
2023-02-14T09:51:28.345Z,21.00
2023-02-14T09:54:00.109Z,17.20
2023-02-14T09:56:33.598Z,18.23
2023-02-14T09:59:07.856Z,16.27
2023-02-14T10:01:37.746Z,13.57
2023-02-14T10:04:18.347Z,13.00
2023-02-14T10:06:51.818Z,13.50
2023-02-14T10:09:41.665Z,13.60
2023-02-14T10:12:12.466Z,12.50
2023-02-14T10:14:41.481Z,14.03
2023-02-14T10:17:10.904Z,11.63
2023-02-14T10:19:41.958Z,11.23
2023-02-14T10:22:12.308Z,10.30
2023-02-14T10:24:42.590Z,11.93
2023-02-14T10:27:14.049Z,8.43
2023-02-14T10:29:42.492Z,10.40
2023-02-14T10:32:14.218Z,10.53
2023-02-14T10:34:46.750Z,9.50
2023-02-14T10:37:23.850Z,8.17
2023-02-14T10:39:59.567Z,8.23
2023-02-14T10:42:32.289Z,8.63
2023-02-14T10:45:04.809Z,7.90
2023-02-14T10:47:38.218Z,8.33
2023-02-14T10:50:12.285Z,8.63
2023-02-14T10:52:41.744Z,8.00
2023-02-14T10:55:20.248Z,9.57
2023-02-14T10:57:58.414Z,8.13
2023-02-14T11:00:27.678Z,8.20
2023-02-14T11:02:59.950Z,9.00
2023-02-14T11:05:31.962Z,7.30
2023-02-14T11:08:00.110Z,8.27
2023-02-14T11:10:31.134Z,7.87
2023-02-14T11:12:59.264Z,6.30
2023-02-14T11:15:28.688Z,5.77
2023-02-14T11:18:11.289Z,5.90
2023-02-14T11:20:41.018Z,4.70
2023-02-14T11:23:21.736Z,5.63
2023-02-14T11:25:53.726Z,5.30
2023-02-14T11:28:21.924Z,5.07
2023-02-14T11:30:50.996Z,5.10
2023-02-14T11:33:35.693Z,7.17
2023-02-14T11:36:06.238Z,4.80
2023-02-14T11:38:36.732Z,6.43
2023-02-14T11:41:05.238Z,5.07
2023-02-14T11:43:34.242Z,4.60
2023-02-14T11:46:08.004Z,5.13
2023-02-14T11:48:38.882Z,5.93
2023-02-14T11:51:13.979Z,6.43
2023-02-14T11:53:46.383Z,6.83
2023-02-14T11:56:14.496Z,5.57
2023-02-14T11:58:44.199Z,5.27
2023-02-14T12:01:12.484Z,5.27
2023-02-14T12:03:41.244Z,4.57
2023-02-14T12:06:10.805Z,5.13
2023-02-14T12:08:41.940Z,4.47
2023-02-14T12:11:20.039Z,4.73
2023-02-14T12:13:53.112Z,4.83
2023-02-14T12:16:23.601Z,4.20
2023-02-14T12:18:54.227Z,5.20
2023-02-14T12:21:28.761Z,4.73
2023-02-14T12:24:01.476Z,5.93
2023-02-14T12:26:32.155Z,5.40
2023-02-14T12:29:04.345Z,5.50
2023-02-14T12:31:32.829Z,4.77
2023-02-14T12:34:01.249Z,5.73
2023-02-14T12:36:39.831Z,6.27
2023-02-14T12:39:11.583Z,5.70
2023-02-14T12:41:43.354Z,6.50
2023-02-14T12:44:13.688Z,5.93
2023-02-14T12:47:05.761Z,7.70
2023-02-14T12:49:49.572Z,8.27
2023-02-14T12:52:29.900Z,5.20
2023-02-14T12:55:06.227Z,6.63
2023-02-14T12:57:39.200Z,7.03
2023-02-14T13:00:17.584Z,4.77
2023-02-14T13:03:30.515Z,3.63
2023-02-14T13:06:01.938Z,3.90
2023-02-14T13:08:43.433Z,3.97
2023-02-14T13:11:15.298Z,8.23
2023-02-14T13:13:50.936Z,8.80
2023-02-14T13:16:21.955Z,7.00
2023-02-14T13:18:52.202Z,5.53
2023-02-14T13:21:23.189Z,4.07
2023-02-14T13:23:55.053Z,8.17
2023-02-14T13:26:24.953Z,4.67
2023-02-14T13:28:53.961Z,6.00
2023-02-14T13:31:22.238Z,6.27
2023-02-14T13:33:52.490Z,7.87
2023-02-14T13:36:20.811Z,5.33
2023-02-14T13:38:50.200Z,4.17
2023-02-14T13:41:19.807Z,5.70
2023-02-14T13:43:52.686Z,4.43
2023-02-14T13:46:22.482Z,6.07
2023-02-14T13:48:59.402Z,5.47
2023-02-14T13:51:45.730Z,4.33
2023-02-14T13:54:22.396Z,5.63
2023-02-14T13:56:51.901Z,7.47
2023-02-14T13:59:29.017Z,4.77
2023-02-14T14:01:57.325Z,5.93
2023-02-14T14:04:35.606Z,7.40
2023-02-14T14:07:17.692Z,5.93
2023-02-14T14:09:59.408Z,5.53
2023-02-14T14:12:46.737Z,7.97
2023-02-14T14:15:19.174Z,4.30
2023-02-14T14:18:06.026Z,3.50
2023-02-14T14:20:48.978Z,3.57
2023-02-14T14:23:34.775Z,4.97
2023-02-14T14:26:03.409Z,4.67
2023-02-14T14:28:33.881Z,3.10
2023-02-14T14:31:02.118Z,3.63
2023-02-14T14:33:31.102Z,6.63
2023-02-14T14:36:00.339Z,3.83
2023-02-14T14:38:28.791Z,4.43
2023-02-14T14:40:57.248Z,4.30
2023-02-14T14:43:28.018Z,4.70
2023-02-14T14:45:58.935Z,5.40
2023-02-14T14:48:31.948Z,4.27
2023-02-14T14:51:00.134Z,4.83
2023-02-14T14:53:30.499Z,4.47
2023-02-14T14:55:58.998Z,5.23
2023-02-14T14:58:36.341Z,5.20
2023-02-14T15:01:05.960Z,4.93
2023-02-14T15:03:34.241Z,3.87
2023-02-14T15:06:08.088Z,4.30
2023-02-14T15:08:36.238Z,5.13
2023-02-14T15:11:07.339Z,4.40
2023-02-14T15:13:49.741Z,4.23
2023-02-14T15:16:23.345Z,4.90
2023-02-14T15:18:51.539Z,5.27
2023-02-14T15:21:19.944Z,4.17
2023-02-14T15:23:48.060Z,3.73
2023-02-14T15:26:19.844Z,5.00
2023-02-14T15:28:54.047Z,3.77
2023-02-14T15:31:23.717Z,4.03
2023-02-14T15:33:52.190Z,5.77
2023-02-14T15:36:21.592Z,5.40
2023-02-14T15:38:49.738Z,4.47
2023-02-14T15:41:17.886Z,3.77
2023-02-14T15:43:46.345Z,6.63
2023-02-14T15:46:17.501Z,5.33
2023-02-14T15:48:47.550Z,3.77
2023-02-14T15:51:17.833Z,4.33
2023-02-14T15:53:46.708Z,4.53
2023-02-14T15:56:20.919Z,4.80
2023-02-14T15:58:49.588Z,5.17
2023-02-14T16:01:21.708Z,4.83
2023-02-14T16:03:52.901Z,5.70
2023-02-14T16:06:34.952Z,7.43
2023-02-14T16:09:03.687Z,7.47
2023-02-14T16:11:32.711Z,6.03
2023-02-14T16:14:00.815Z,7.30
2023-02-14T16:16:29.808Z,5.80
2023-02-14T16:18:59.307Z,6.17
2023-02-14T16:21:27.988Z,8.23
2023-02-14T16:24:12.284Z,7.30
2023-02-14T16:26:41.388Z,7.47
2023-02-14T16:29:10.800Z,5.57
2023-02-14T16:31:39.711Z,6.40
2023-02-14T16:34:11.393Z,6.17
2023-02-14T16:36:39.835Z,5.30
2023-02-14T16:39:08.257Z,7.10
2023-02-14T16:41:36.406Z,6.93
2023-02-14T16:44:04.798Z,5.37
2023-02-14T16:46:33.828Z,4.90
2023-02-14T16:49:02.029Z,7.47
2023-02-14T16:51:33.655Z,8.33
2023-02-14T16:54:03.868Z,6.03
2023-02-14T16:56:34.775Z,7.30
2023-02-14T16:59:02.892Z,8.37
2023-02-14T17:01:32.150Z,8.00
2023-02-14T17:04:00.471Z,5.97
2023-02-14T17:06:29.149Z,8.80
2023-02-14T17:08:59.390Z,7.07
2023-02-14T17:11:28.269Z,7.47
2023-02-14T17:13:56.443Z,6.73
2023-02-14T17:16:24.614Z,7.37
2023-02-14T17:18:53.310Z,7.77
2023-02-14T17:21:22.885Z,7.10
2023-02-14T17:23:51.163Z,5.33
2023-02-14T17:26:20.736Z,9.97
2023-02-14T17:28:48.972Z,8.67
2023-02-14T17:31:18.139Z,7.23
2023-02-14T17:33:46.336Z,6.70
2023-02-14T17:36:15.160Z,7.07
2023-02-14T17:38:44.997Z,8.90
2023-02-14T17:41:16.949Z,6.70
2023-02-14T17:43:46.546Z,7.07
2023-02-14T17:46:16.117Z,6.97
2023-02-14T17:48:45.544Z,8.93
2023-02-14T17:51:14.237Z,7.70
2023-02-14T17:53:42.683Z,10.67
2023-02-14T17:56:11.848Z,9.87
2023-02-14T17:58:40.222Z,9.40
2023-02-14T18:01:10.770Z,8.73
2023-02-14T18:03:39.212Z,8.87
2023-02-14T18:06:09.812Z,10.93
2023-02-14T18:08:40.394Z,13.07
2023-02-14T18:11:08.688Z,15.70
2023-02-14T18:13:37.021Z,12.23
2023-02-14T18:16:05.962Z,11.13
2023-02-14T18:18:36.665Z,11.93
2023-02-14T18:21:06.110Z,11.33
2023-02-14T18:23:34.369Z,11.87
2023-02-14T18:26:04.666Z,13.47
2023-02-14T18:28:33.002Z,11.57
2023-02-14T18:31:04.146Z,13.53
2023-02-14T18:33:33.073Z,13.97
2023-02-14T18:36:03.888Z,13.33
2023-02-14T18:38:32.200Z,12.50
2023-02-14T18:41:03.383Z,13.13
2023-02-14T18:43:31.640Z,16.67
2023-02-14T18:46:03.798Z,14.73
2023-02-14T18:48:32.482Z,21.23
2023-02-14T18:51:08.477Z,19.57
2023-02-14T18:53:36.688Z,17.50
2023-02-14T18:56:06.263Z,15.37
2023-02-14T18:58:34.893Z,15.53
2023-02-14T19:01:09.053Z,15.57
2023-02-14T19:03:37.496Z,19.70
2023-02-14T19:06:07.537Z,19.23
2023-02-14T19:08:36.060Z,18.87
2023-02-14T19:11:04.531Z,18.53
2023-02-14T19:13:33.132Z,17.73
2023-02-14T19:16:01.312Z,17.40
2023-02-14T19:18:29.495Z,12.73
2023-02-14T19:20:57.817Z,12.17
2023-02-14T19:23:27.407Z,10.33
2023-02-14T19:25:56.135Z,12.63
2023-02-14T19:28:25.966Z,14.67
2023-02-14T19:30:54.834Z,14.83
2023-02-14T19:33:23.018Z,14.23
2023-02-14T19:36:00.409Z,16.67
2023-02-14T19:38:29.948Z,14.87
2023-02-14T19:40:58.109Z,13.43
2023-02-14T19:43:26.307Z,12.27
2023-02-14T19:45:54.420Z,10.63
2023-02-14T19:48:22.991Z,12.60
2023-02-14T19:50:51.151Z,11.30
2023-02-14T19:53:19.600Z,13.17
2023-02-14T19:55:49.144Z,10.43
2023-02-14T19:58:17.232Z,9.10
2023-02-14T20:00:45.373Z,10.63
2023-02-14T20:03:13.938Z,10.10
2023-02-14T20:05:43.434Z,9.37
2023-02-14T20:08:11.735Z,9.87
2023-02-14T20:10:39.830Z,6.93
2023-02-14T20:13:10.049Z,8.07
2023-02-14T20:15:39.994Z,8.53
2023-02-14T20:18:08.255Z,10.30
2023-02-14T20:20:50.559Z,9.30
2023-02-14T20:23:18.728Z,8.77
2023-02-14T20:25:46.868Z,7.27
2023-02-14T20:28:16.488Z,7.17
2023-02-14T20:30:44.748Z,6.23
2023-02-14T20:33:13.271Z,7.53
2023-02-14T20:35:41.503Z,7.93
2023-02-14T20:38:09.707Z,5.77
2023-02-14T20:40:39.914Z,6.07
2023-02-14T20:43:08.034Z,6.30
2023-02-14T20:45:38.070Z,6.93
2023-02-14T20:48:08.110Z,8.07
2023-02-14T20:50:36.240Z,8.07
2023-02-14T20:53:04.379Z,8.07
2023-02-14T20:55:32.502Z,8.57
2023-02-14T20:58:02.449Z,7.77
2023-02-14T21:00:31.323Z,9.30
2023-02-14T21:03:01.998Z,9.63
2023-02-14T21:05:30.138Z,11.00
2023-02-14T21:07:58.200Z,6.87
2023-02-14T21:10:27.674Z,9.40
2023-02-14T21:12:55.791Z,9.47
2023-02-14T21:15:24.255Z,8.63
2023-02-14T21:17:52.386Z,9.93
2023-02-14T21:20:22.920Z,9.43
2023-02-14T21:22:51.027Z,9.17
2023-02-14T21:25:20.807Z,8.90
2023-02-14T21:27:50.942Z,7.87
2023-02-14T21:30:19.456Z,9.27
2023-02-14T21:32:47.672Z,7.07
2023-02-14T21:35:15.863Z,9.97
2023-02-14T21:37:45.365Z,8.67
2023-02-14T21:40:13.850Z,10.27
2023-02-14T21:42:42.267Z,13.33
2023-02-14T21:45:29.058Z,9.37
2023-02-14T21:48:14.812Z,10.50
2023-02-14T21:50:42.923Z,10.93
2023-02-14T21:53:13.037Z,12.67
2023-02-14T21:55:42.840Z,9.60
2023-02-14T21:58:11.323Z,8.80
2023-02-14T22:00:39.427Z,10.53
2023-02-14T22:03:07.545Z,11.40
2023-02-14T22:05:35.660Z,12.97
2023-02-14T22:08:03.734Z,13.67
2023-02-14T22:10:33.753Z,11.90
2023-02-14T22:13:01.871Z,11.83
2023-02-14T22:15:29.984Z,11.10
2023-02-14T22:17:58.058Z,13.13
2023-02-14T22:20:26.215Z,9.87
2023-02-14T22:22:54.283Z,9.93
2023-02-14T22:25:22.692Z,10.60
2023-02-14T22:27:52.218Z,9.03
2023-02-14T22:30:20.568Z,8.30
2023-02-14T22:32:48.681Z,7.07
2023-02-14T22:35:16.976Z,6.47
2023-02-14T22:37:45.461Z,9.23
2023-02-14T22:40:13.549Z,7.40
2023-02-14T22:42:41.660Z,7.43
2023-02-14T22:45:11.595Z,6.17
2023-02-14T22:47:39.718Z,8.30
2023-02-14T22:50:08.786Z,6.93
2023-02-14T22:52:37.244Z,9.73
2023-02-14T22:55:05.613Z,7.20
2023-02-14T22:57:33.737Z,7.27
2023-02-14T23:00:01.825Z,6.50
2023-02-14T23:02:31.384Z,7.67
2023-02-14T23:04:59.508Z,7.97
2023-02-14T23:07:27.911Z,7.30
2023-02-14T23:09:55.972Z,5.80
2023-02-14T23:12:41.655Z,9.07
2023-02-14T23:15:27.871Z,7.90
2023-02-14T23:18:15.072Z,6.70
2023-02-14T23:21:00.451Z,8.23
2023-02-14T23:23:31.707Z,10.83
2023-02-14T23:26:00.231Z,10.93
2023-02-14T23:28:29.540Z,12.53
2023-02-14T23:31:01.400Z,10.10
2023-02-14T23:33:31.259Z,10.70
2023-02-14T23:36:03.067Z,8.07
2023-02-14T23:38:31.565Z,10.67
2023-02-14T23:41:16.890Z,10.37
2023-02-14T23:43:44.987Z,9.40
2023-02-14T23:46:13.123Z,19.13
2023-02-14T23:48:42.896Z,18.77
2023-02-14T23:51:10.999Z,18.33
2023-02-14T23:53:39.081Z,21.10
2023-02-14T23:56:07.198Z,18.07
2023-02-14T23:58:35.313Z,17.43
